Latest Weather Observations for Neptune Island

IDS60801

Issued at 8:01 am CST Monday 3 August 2015 (issued every 30 minutes, with the page automatically refreshed every 10 minutes)

About weather observations | Map of weather stations | Latest weather observations for SA | Other Formats
Station Details ID: 018115 Name: NEPTUNE ISLAND Lat: -35.34 Lon: 136.12 Height: 32.0 m
Data from the previous 72 hours. | See also: Recent months at Neptune Island
Date/Time
CST
Temp
°C
App
Temp
°C
Dew
Point
Rel
Hum
%
Delta-T
°C
Wind Press
QNH
hPa
Press
MSL
hPa
Rain
since 9 am
mm
Dir
 
Spd
km/h
Gust
km/h
Spd
kts
Gust
kts
03/08:00am 11.4 2.3 8.4 82 1.5 SW 46 57 25 31 1024.9 1024.9 0.6
03/07:30am 11.5 2.2 9.2 86 1.1 WSW 48 56 26 30 1024.6 1024.6 0.6
03/07:00am 11.4 2.7 8.6 83 1.4 SW 44 52 24 28 1024.2 1024.2 0.6
03/06:30am 11.7 1.3 9.3 85 1.2 SW 54 70 29 38 1023.5 1023.5 0.6
03/06:29am 12.0 2.4 9.4 84 1.3 SW 50 69 27 37 1023.5 1023.5 0.6
03/06:00am 11.4 1.6 8.8 84 1.3 SW 50 57 27 31 1023.4 1023.4 0.6
03/05:30am 11.4 2.3 9.7 89 0.9 SW 48 61 26 33 1023.3 1023.3 0.6
03/05:00am 12.4 3.5 9.2 81 1.6 WSW 46 56 25 30 1023.0 1023.0 0.0
03/04:30am 12.1 2.4 8.9 81 1.6 WSW 50 59 27 32 1022.8 1022.8 0.0
03/04:10am 12.5 2.8 9.0 79 1.8 WSW 50 69 27 37 1022.6 1022.6 0.0
03/04:00am 12.5 2.2 8.2 75 2.1 WSW 52 59 28 32 1022.5 1022.5 0.0
03/03:30am 12.9 2.2 8.2 73 2.3 WSW 54 59 29 32 1022.4 1022.4 0.0
03/03:00am 12.6 2.4 8.5 76 2.0 WSW 52 61 28 33 1022.7 1022.7 0.0
03/02:30am 13.0 3.0 7.7 70 2.6 WSW 50 63 27 34 1022.7 1022.7 0.0
03/02:00am 12.8 1.8 8.5 75 2.1 WSW 56 65 30 35 1022.6 1022.6 0.0
03/01:30am 12.8 2.2 8.3 74 2.2 WSW 54 65 29 35 1022.5 1022.5 0.0
03/01:00am 12.7 1.6 7.8 72 2.4 WSW 56 70 30 38 1022.4 1022.4 0.0
03/12:30am 12.7 2.2 8.8 77 1.9 WSW 54 69 29 37 1022.4 1022.4 0.0
03/12:00am 12.9 2.5 9.4 79 1.8 WSW 54 61 29 33 1022.4 1022.4 0.0
 
Date/Time
CST
Temp
°C
App
Temp
°C
Dew
Point
Rel
Hum
%
Delta-T
°C
Wind Press
QNH
hPa
Press
MSL
hPa
Rain
since 9 am
mm
Dir
 
Spd
km/h
Gust
km/h
Spd
kts
Gust
kts
02/11:30pm 12.6 2.0 10.1 85 1.3 WSW 56 67 30 36 1022.3 1022.3 0.0
02/11:20pm 12.5 2.1 9.3 81 1.6 WSW 54 74 29 40 1022.2 1022.2 0.0
02/11:00pm 12.6 2.2 9.4 81 1.6 WSW 54 63 29 34 1022.5 1022.5 0.0
02/10:30pm 12.7 1.8 9.5 81 1.6 WSW 57 72 31 39 1022.5 1022.5 0.0
02/10:00pm 13.3 3.1 10.1 81 1.7 WSW 54 63 29 34 1022.3 1022.3 0.0
02/09:30pm 12.9 3.7 9.4 79 1.8 WSW 48 56 26 30 1022.2 1022.2 0.0
02/09:11pm 13.0 2.3 9.4 79 1.8 WSW 56 76 30 41 1021.9 1021.9 0.0
02/09:00pm 13.0 1.7 9.3 78 1.9 WSW 59 69 32 37 1021.9 1021.9 0.0
02/08:38pm 12.8 3.0 10.0 83 1.4 WSW 52 70 28 38 1021.7 1021.7 0.0
02/08:30pm 13.5 3.2 9.7 78 1.9 W 54 65 29 35 1021.7 1021.7 0.0
02/08:00pm 13.6 3.3 9.6 77 2.1 W 54 67 29 36 1021.5 1021.5 0.0
02/07:30pm 13.5 4.3 9.6 77 2.0 W 48 59 26 32 1021.3 1021.3 0.0
02/07:00pm 13.2 3.0 8.5 73 2.3 WSW 52 61 28 33 1021.2 1021.2 0.0
02/06:30pm 13.4 3.7 8.9 74 2.3 WSW 50 59 27 32 1020.9 1020.9 0.0
02/06:00pm 13.4 3.2 8.7 73 2.4 WSW 52 61 28 33 1020.8 1020.8 0.0
02/05:30pm 13.4 3.2 8.7 73 2.4 WSW 52 59 28 32 1020.5 1020.5 0.0
02/05:00pm 13.3 2.7 8.4 72 2.4 WSW 54 65 29 35 1020.1 1020.1 0.0
02/04:30pm 13.5 2.7 9.2 75 2.2 WSW 56 65 30 35 1020.2 1020.2 0.0
02/04:00pm 13.3 2.3 9.2 76 2.1 WSW 57 67 31 36 1020.0 1020.0 0.0
02/03:30pm 13.6 4.0 9.5 76 2.1 W 50 59 27 32 1019.7 1019.7 0.0
02/03:00pm 13.7 3.0 9.6 76 2.1 W 56 63 30 34 1019.3 1019.3 0.0
02/02:30pm 13.8 3.6 10.0 78 2.0 W 54 65 29 35 1019.3 1019.3 0.0
02/02:09pm 12.9 3.4 9.7 81 1.6 WSW 50 69 27 37 1019.5 1019.5 0.0
02/02:00pm 13.0 2.2 9.3 78 1.9 WSW 56 69 30 37 1019.2 1019.2 0.0
02/01:30pm 13.9 4.2 9.1 73 2.4 WSW 50 61 27 33 1019.3 1019.3 0.0
02/01:00pm 13.8 3.7 9.0 73 2.4 WSW 52 63 28 34 1019.3 1019.3 0.0
02/12:30pm 13.8 3.5 9.8 77 2.1 W 54 63 29 34 1019.4 1019.4 0.0
02/12:02pm 13.2 3.9 10.6 84 1.4 W 50 69 27 37 1019.8 1019.8 0.0
02/12:00pm 12.7 2.8 9.9 83 1.4 W 52 69 28 37 1019.9 1019.9 0.0
02/11:54am 13.2 3.7 9.8 80 1.7 W 50 69 27 37 1019.6 1019.6 0.0
02/11:30am 12.4 2.3 9.1 80 1.7 WSW 52 67 28 36 1019.9 1019.9 0.0
02/11:00am 13.4 4.5 9.3 76 2.1 W 46 54 25 29 1020.0 1020.0 0.0
02/10:30am 13.3 4.0 9.0 75 2.2 W 48 61 26 33 1019.8 1019.8 0.0
02/10:00am 12.0 2.2 8.7 80 1.6 W 50 65 27 35 1019.9 1019.9 0.0
02/09:30am 12.3 2.6 7.4 72 2.4 WSW 48 59 26 32 1019.6 1019.6 0.0
02/09:00am 11.9 3.3 8.0 77 1.9 WSW 43 56 23 30 1019.7 1019.7 0.4
02/08:49am 12.0 2.8 7.9 76 2.0 WSW 46 67 25 36 1019.2 1019.2 0.4
02/08:30am 11.8 1.1 8.1 78 1.8 WSW 54 69 29 37 1019.3 1019.3 0.4
02/08:23am 12.6 3.1 8.5 76 2.0 WSW 48 67 26 36 1019.1 1019.1 0.4
02/08:00am 11.4 1.5 8.1 80 1.6 W 50 65 27 35 1019.0 1019.0 0.4
02/07:30am 11.1 1.9 8.0 81 1.5 W 46 59 25 32 1019.0 1019.0 0.4
02/07:00am 11.6 2.9 8.5 81 1.5 WSW 44 61 24 33 1018.5 1018.5 0.4
02/06:42am 11.3 3.6 8.5 83 1.4 WSW 39 59 21 32 1018.2 1018.2 0.4
02/06:30am 11.0 2.2 8.2 83 1.4 WSW 44 57 24 31 1018.4 1018.4 0.4
02/06:08am 10.7 3.0 8.5 86 1.1 WSW 39 57 21 31 1018.3 1018.3 0.4
02/06:00am 10.4 1.8 8.0 85 1.2 WSW 43 57 23 31 1018.2 1018.2 0.0
02/05:30am 11.0 2.7 7.9 81 1.5 W 41 54 22 29 1018.1 1018.1 0.0
02/05:17am 11.2 3.3 7.9 80 1.6 WSW 39 57 21 31 1017.9 1017.9 0.0
02/05:05am 10.1 -0.1 7.0 81 1.5 WSW 50 65 27 35 1018.2 1018.2 0.0
02/05:00am 10.9 1.7 8.0 82 1.4 WSW 46 65 25 35 1018.0 1018.0 0.0
02/04:58am 11.0 2.1 7.5 79 1.7 W 44 65 24 35 1017.8 1017.8 0.0
02/04:56am 11.6 3.3 7.7 77 1.9 W 41 65 22 35 1017.9 1017.9 0.0
02/04:30am 11.5 3.4 7.0 74 2.1 W 39 48 21 26 1017.9 1017.9 0.0
02/04:00am 11.6 4.0 5.9 68 2.7 WSW 35 46 19 25 1018.1 1018.1 0.0
02/03:30am 11.5 2.9 4.5 62 3.2 WSW 39 46 21 25 1018.2 1018.2 0.0
02/03:00am 10.8 5.0 6.2 73 2.1 WSW 26 30 14 16 1018.6 1018.6 0.0
02/02:30am 11.1 1.6 6.8 75 2.0 WSW 46 56 25 30 1018.5 1018.5 0.0
02/02:00am 11.0 3.3 5.5 69 2.5 WSW 35 44 19 24 1018.8 1018.8 0.0
02/01:30am 11.2 5.2 5.5 68 2.6 WSW 26 35 14 19 1018.7 1018.7 0.0
02/01:00am 10.9 3.7 5.2 68 2.6 WSW 32 39 17 21 1018.8 1018.8 0.0
02/12:30am 11.7 4.5 5.1 64 3.0 WSW 32 41 17 22 1018.7 1018.7 0.0
02/12:00am 11.6 4.2 4.8 63 3.1 WSW 33 43 18 23 1018.9 1018.9 0.0
 
Date/Time
CST
Temp
°C
App
Temp
°C
Dew
Point
Rel
Hum
%
Delta-T
°C
Wind Press
QNH
hPa
Press
MSL
hPa
Rain
since 9 am
mm
Dir
 
Spd
km/h
Gust
km/h
Spd
kts
Gust
kts
01/11:30pm 11.6 4.3 4.6 62 3.2 WSW 32 37 17 20 1018.9 1018.9 0.0
01/11:00pm 11.6 4.7 4.8 63 3.1 WSW 30 37 16 20 1018.9 1018.9 0.0
01/10:30pm 11.5 5.2 5.8 68 2.6 WSW 28 39 15 21 1019.0 1019.0 0.0
01/10:00pm 11.3 5.4 4.1 61 3.2 WSW 24 30 13 16 1018.9 1018.9 0.0
01/09:30pm 11.3 5.9 4.3 62 3.1 SW 22 28 12 15 1018.8 1018.8 0.0
01/09:00pm 11.3 5.7 5.2 66 2.8 SW 24 28 13 15 1018.7 1018.7 0.0
01/08:30pm 11.3 5.6 4.7 64 3.0 SW 24 30 13 16 1018.6 1018.6 0.0
01/08:00pm 11.2 5.8 4.4 63 3.1 SW 22 28 12 15 1018.4 1018.4 0.0
01/07:30pm 11.2 5.9 5.1 66 2.8 SSW 22 28 12 15 1018.2 1018.2 0.0
01/07:00pm 11.2 5.8 4.7 64 2.9 SSW 22 28 12 15 1017.9 1017.9 0.0
01/06:30pm 11.3 6.4 5.0 65 2.9 SSW 20 26 11 14 1017.4 1017.4 0.0
01/06:00pm 11.2 6.9 5.1 66 2.8 SSW 17 20 9 11 1017.3 1017.3 0.0
01/05:30pm 11.3 6.7 5.4 67 2.7 S 19 24 10 13 1016.6 1016.6 0.0
01/05:00pm 11.3 6.4 5.2 66 2.8 S 20 24 11 13 1016.7 1016.7 0.0
01/04:30pm 11.4 6.8 5.5 67 2.7 SSW 19 24 10 13 1016.5 1016.5 0.0
01/04:00pm 11.3 7.4 5.2 66 2.8 S 15 20 8 11 1016.3 1016.2 0.0
01/03:30pm 11.2 7.5 4.4 63 3.1 SSE 13 19 7 10 1016.2 1016.1 0.0
01/03:00pm 11.3 7.7 5.0 65 2.9 SSE 13 17 7 9 1016.3 1016.2 0.0
01/02:30pm 11.3 7.4 5.2 66 2.8 SSE 15 20 8 11 1016.2 1016.1 0.0
01/02:00pm 11.4 7.4 5.1 65 2.9 SSE 15 19 8 10 1016.4 1016.4 0.0
01/01:30pm 11.5 7.2 5.4 66 2.8 SE 17 22 9 12 1016.4 1016.4 0.0
01/01:00pm 11.7 7.5 5.8 67 2.8 S 17 20 9 11 1016.9 1016.9 0.0
01/12:30pm 12.0 7.2 5.6 65 3.0 SE 20 28 11 15 1016.2 1016.1 0.0
01/12:00pm 11.7 7.9 5.8 67 2.7 SSE 15 20 8 11 1017.4 1017.4 0.0
01/11:30am 11.6 7.2 5.0 64 3.0 S 17 22 9 12 1018.5 1018.5 0.0
01/11:00am 11.5 5.9 5.2 65 2.9 SSE 24 28 13 15 1018.1 1018.1 0.0
01/10:30am 11.6 6.4 5.7 67 2.7 SSE 22 30 12 16 1017.5 1017.5 0.0
01/10:00am 11.5 5.5 5.4 66 2.8 S 26 32 14 17 1017.9 1017.9 0.0
01/09:30am 11.8 5.3 6.3 69 2.6 S 30 35 16 19 1016.5 1016.5 0.0
01/09:00am 11.8 5.6 6.1 68 2.7 S 28 33 15 18 1016.1 1016.0 0.4
01/08:30am 12.0 5.9 6.7 70 2.5 S 28 37 15 20 1016.5 1016.5 0.4
01/08:00am 12.0 5.2 6.9 71 2.4 S 32 39 17 21 1015.7 1015.6 0.4
01/07:30am 12.0 5.6 6.9 71 2.4 SSW 30 37 16 20 1015.6 1015.5 0.4
01/07:00am 12.0 5.3 7.3 73 2.3 SSW 32 41 17 22 1015.1 1015.1 0.4
01/06:30am 12.2 5.7 8.1 76 2.0 SSW 32 37 17 20 1015.6 1015.5 0.4
01/06:00am 12.1 4.8 7.2 72 2.4 SSW 35 43 19 23 1014.6 1014.6 0.4
01/05:30am 12.1 5.1 8.4 78 1.8 SSW 35 43 19 23 1013.9 1013.9 0.4
01/05:00am 11.5 3.1 8.9 84 1.3 SSW 43 50 23 27 1013.5 1013.5 0.4
01/04:30am 12.3 4.2 9.9 85 1.2 SSW 43 50 23 27 1013.2 1013.2 0.4
01/04:00am 12.4 5.0 10.0 85 1.2 SSW 39 48 21 26 1013.1 1013.1 0.4
01/03:30am 12.5 3.9 10.2 86 1.2 SSW 46 56 25 30 1012.8 1012.8 0.4
01/03:00am 12.7 4.1 10.4 86 1.2 SSW 46 56 25 30 1012.2 1012.2 0.4
01/02:30am 13.3 4.9 9.7 79 1.8 SW 44 54 24 29 1012.5 1012.5 0.4
01/02:00am 13.2 4.4 9.5 78 1.9 SW 46 56 25 30 1012.1 1012.1 0.4
01/01:30am 13.1 4.4 10.1 82 1.5 SW 46 56 25 30 1011.8 1011.8 0.4
01/01:00am 12.2 6.5 11.1 93 0.6 SW 32 39 17 21 1011.7 1011.7 0.4
01/12:30am 12.6 5.3 11.7 94 0.5 SW 41 50 22 27 1011.6 1011.6 0.2
01/12:18am 13.2 4.3 11.9 92 0.7 WNW 50 67 27 36 1011.2 1011.2 0.2
01/12:16am 13.8 4.7 12.5 92 0.7 NW 52 67 28 36 1011.1 1011.1 0.0
01/12:00am 14.6 6.1 13.3 92 0.7 NW 50 61 27 33 1010.4 1010.4 0.0
 
Date/Time
CST
Temp
°C
App
Temp
°C
Dew
Point
Rel
Hum
%
Delta-T
°C
Wind Press
QNH
hPa
Press
MSL
hPa
Rain
since 9 am
mm
Dir
 
Spd
km/h
Gust
km/h
Spd
kts
Gust
kts
31/11:30pm 14.6 6.9 13.3 92 0.7 NW 46 59 25 32 1010.5 1010.5 0.0
31/11:00pm 14.5 5.9 13.0 91 0.8 NW 50 59 27 32 1010.5 1010.5 0.0
31/10:30pm 14.4 7.0 13.0 91 0.8 NW 44 54 24 29 1010.9 1010.9 0.0
31/10:00pm 14.0 6.5 12.6 91 0.8 NNW 44 52 24 28 1011.1 1011.1 0.0
31/09:30pm 13.9 6.8 12.3 90 0.9 NNW 41 50 22 27 1011.0 1011.0 0.0
31/09:00pm 14.0 6.5 12.0 88 1.1 NNW 43 50 23 27 1011.1 1011.1 0.0
31/08:30pm 14.5 5.9 11.5 82 1.6 NNW 48 59 26 32 1011.2 1011.2 0.0
31/08:00pm 14.6 7.3 11.6 82 1.6 NNW 41 50 22 27 1011.5 1011.5 0.0
31/07:30pm 14.6 7.7 11.7 83 1.6 NNW 39 46 21 25 1011.8 1011.8 0.0
31/07:00pm 14.6 8.5 11.6 82 1.6 NNW 35 41 19 22 1011.9 1011.9 0.0
31/06:30pm 14.6 8.8 11.4 81 1.7 NW 33 39 18 21 1012.0 1012.0 0.0
31/06:00pm 14.7 8.5 11.5 81 1.7 NNW 35 41 19 22 1012.1 1012.1 0.0
31/05:30pm 14.6 8.3 11.2 80 1.8 NW 35 41 19 22 1012.0 1012.0 0.0
31/05:00pm 14.7 7.3 11.1 79 1.9 NW 41 48 22 26 1012.4 1012.4 0.0
31/04:30pm 14.8 8.4 10.8 77 2.1 NW 35 46 19 25 1012.5 1012.5 0.0
31/04:00pm 15.1 9.9 11.5 79 1.9 NNW 30 39 16 21 1012.8 1012.8 0.0
31/03:30pm 15.0 9.6 11.0 77 2.1 NW 30 37 16 20 1013.0 1013.0 0.0
31/03:00pm 14.8 10.0 11.6 81 1.7 N 28 32 15 17 1013.3 1013.3 0.0
31/02:30pm 14.7 9.0 11.1 79 1.9 N 32 39 17 21 1013.4 1013.4 0.0
31/02:00pm 14.3 8.2 10.5 78 2.0 N 33 39 18 21 1014.2 1014.2 0.0
31/01:30pm 14.5 8.0 10.5 77 2.1 N 35 43 19 23 1015.1 1015.1 0.0
31/01:00pm 14.2 6.8 9.8 75 2.3 N 39 44 21 24 1015.7 1015.6 0.0
31/12:30pm 13.6 6.0 8.9 73 2.4 N 39 46 21 25 1016.1 1016.0 0.0
31/12:00pm 14.2 7.5 9.6 74 2.4 N 35 43 19 23 1017.0 1017.0 0.0
31/11:30am 13.7 6.9 9.2 74 2.3 N 35 41 19 22 1017.4 1017.4 0.0
31/11:00am 13.6 7.1 8.2 70 2.7 N 32 39 17 21 1018.1 1018.1 0.0
31/10:30am 13.0 6.9 6.4 64 3.1 N 28 35 15 19 1018.5 1018.5 0.0
31/10:00am 13.6 8.2 6.5 62 3.4 N 24 32 13 17 1018.6 1018.6 0.0
31/09:30am 12.6 5.8 5.3 61 3.4 NNW 30 39 16 21 1019.1 1019.1 0.0
31/09:00am 12.3 6.7 5.5 63 3.2 N 24 32 13 17 1019.4 1019.4 0.2
31/08:30am 12.4 6.9 5.8 64 3.1 N 24 30 13 16 1019.5 1019.5 0.2

Other Formats:

Comma delimited format used in spreadsheet applications
http://www.bom.gov.au/fwo/IDS60801/IDS60801.94804.axf

JavaScript Object Notation format (JSON) in row-major order
http://www.bom.gov.au/fwo/IDS60801/IDS60801.94804.json